Time;durP1;ratioP1;P1;durP2;ratioP2;P2;SDS_P1;SDS_P2;PMS_P1;PMS_P2;Temp;Humidity;BMP_temperature;BMP_pressure;BME280_temperature;BME280_humidity;BME280_pressure;Samples;Min_cycle;Max_cycle;Signal;HPM_P1;HPM_P2
2021/10/30 00:00:23;;;;;;;8.60;5.70;;;;;;;12.44;57.29;97969.78;5133124;27;20488;-52
2021/10/30 00:02:48;;;;;;;9.88;5.50;;;;;;;12.37;57.46;97956.75;5136268;27;20502;-53
2021/10/30 00:05:15;;;;;;;8.18;5.55;;;;;;;12.39;57.59;97967.84;5095340;28;20032;-53
2021/10/30 00:07:43;;;;;;;7.30;5.35;;;;;;;12.50;57.33;97974.13;5093955;28;20111;-53
2021/10/30 00:10:13;;;;;;;12.18;7.15;;;;;;;12.56;57.92;97965.31;5095451;28;20020;-53
2021/10/30 00:12:39;;;;;;;13.02;7.60;;;;;;;12.72;58.96;97957.75;5093954;28;20039;-53
2021/10/30 00:15:06;;;;;;;11.90;5.72;;;;;;;12.57;58.80;97952.94;5095147;28;20028;-52
2021/10/30 00:17:32;;;;;;;9.60;5.78;;;;;;;12.22;58.77;97939.84;5095343;28;20123;-52
2021/10/30 00:19:58;;;;;;;7.63;5.85;;;;;;;11.97;59.01;97933.75;5094999;28;20100;-52
2021/10/30 00:22:24;;;;;;;14.02;8.85;;;;;;;12.08;59.11;97940.06;5093659;28;20443;-52
2021/10/30 00:24:50;;;;;;;17.10;7.93;;;;;;;12.34;58.00;97925.63;5093655;28;20584;-52
2021/10/30 00:27:16;;;;;;;72.43;45.88;;;;;;;12.54;57.84;97912.09;5094808;28;20111;-52
2021/10/30 00:29:41;;;;;;;59.55;37.28;;;;;;;12.69;57.37;97887.91;5095111;28;20024;-52
2021/10/30 00:32:08;;;;;;;30.95;20.38;;;;;;;12.59;57.77;97898.25;5094781;28;20505;-53
2021/10/30 00:34:34;;;;;;;22.52;17.23;;;;;;;12.64;57.45;97884.41;5094749;28;20024;-53
2021/10/30 00:37:00;;;;;;;31.67;18.98;;;;;;;12.53;57.17;97892.06;5093367;28;20113;-52
2021/10/30 00:39:26;;;;;;;14.52;9.23;;;;;;;12.50;57.20;97891.75;5095032;28;20103;-52
2021/10/30 00:41:53;;;;;;;11.93;7.13;;;;;;;12.59;57.19;97885.88;5094642;28;20109;-52
2021/10/30 00:44:20;;;;;;;16.00;9.85;;;;;;;12.62;57.21;97868.84;5094532;28;20016;-52
2021/10/30 00:46:49;;;;;;;12.55;8.00;;;;;;;12.60;57.27;97857.75;5094559;28;20039;-52
2021/10/30 00:49:17;;;;;;;9.35;6.35;;;;;;;12.48;57.39;97867.50;5094523;28;20027;-53
2021/10/30 00:51:45;;;;;;;12.43;7.75;;;;;;;12.43;57.87;97847.13;5094536;28;20046;-52
2021/10/30 00:54:13;;;;;;;8.63;6.00;;;;;;;12.46;57.46;97849.31;5094373;28;20035;-52
2021/10/30 00:56:42;;;;;;;17.08;8.75;;;;;;;12.61;58.63;97833.00;5094285;28;20020;-53
2021/10/30 00:59:11;;;;;;;9.68;6.40;;;;;;;13.02;56.89;97817.13;5094294;28;20037;-52
2021/10/30 01:01:39;;;;;;;10.18;5.70;;;;;;;12.92;57.50;97813.31;5094325;28;20089;-52
2021/10/30 01:04:06;;;;;;;10.32;4.90;;;;;;;12.90;57.04;97807.47;5115163;27;20389;-52
2021/10/30 01:06:33;;;;;;;7.85;4.40;;;;;;;12.98;56.63;97811.56;5135002;27;20503;-53
2021/10/30 01:08:59;;;;;;;10.75;4.90;;;;;;;12.95;56.08;97806.75;5116553;27;20106;-52
2021/10/30 01:11:24;;;;;;;10.90;5.47;;;;;;;12.92;56.39;97800.16;5134812;27;20645;-52
2021/10/30 01:13:51;;;;;;;8.68;4.65;;;;;;;12.99;56.62;97794.72;5135026;27;20023;-53
2021/10/30 01:16:21;;;;;;;10.77;4.75;;;;;;;13.07;56.24;97798.81;5135039;27;20354;-54
2021/10/30 01:18:47;;;;;;;7.97;5.00;;;;;;;13.08;56.42;97795.94;5134933;27;20027;-53
2021/10/30 01:21:22;;;;;;;7.70;5.55;;;;;;;13.09;56.77;97792.25;5134850;27;20028;-52
2021/10/30 01:23:48;;;;;;;9.70;4.68;;;;;;;13.22;56.54;97792.97;5135111;27;20033;-52
2021/10/30 01:26:15;;;;;;;9.43;6.13;;;;;;;13.32;56.03;97799.25;5134888;27;20118;-52
2021/10/30 01:28:40;;;;;;;9.75;5.80;;;;;;;13.42;55.91;97798.63;5134677;27;20030;-52
2021/10/30 01:31:06;;;;;;;9.48;5.22;;;;;;;13.43;55.44;97786.22;5134607;27;20023;-53
2021/10/30 01:33:32;;;;;;;7.13;4.50;;;;;;;13.23;55.85;97800.66;5116131;27;20060;-53
2021/10/30 01:36:09;;;;;;;14.95;5.53;;;;;;;13.25;56.21;97795.16;5134394;27;20019;-53
2021/10/30 01:38:35;;;;;;;9.32;4.88;;;;;;;13.31;55.75;97789.75;5134573;27;20031;-53
2021/10/30 01:41:00;;;;;;;9.85;5.70;;;;;;;13.37;56.05;97786.13;5134379;27;20019;-53
2021/10/30 01:43:26;;;;;;;17.70;5.30;;;;;;;13.48;55.47;97792.38;5115920;27;20023;-51
2021/10/30 01:45:52;;;;;;;10.35;4.90;;;;;;;13.64;55.66;97795.22;5134606;27;20521;-53
2021/10/30 01:48:18;;;;;;;18.02;5.90;;;;;;;13.79;54.93;97790.97;5134290;27;20045;-53
2021/10/30 01:50:44;;;;;;;7.03;4.82;;;;;;;13.85;54.73;97797.13;5115761;27;20076;-52
2021/10/30 01:53:09;;;;;;;11.00;4.97;;;;;;;13.82;54.95;97767.78;5115837;27;20023;-52
2021/10/30 01:55:38;;;;;;;6.22;4.10;;;;;;;13.57;55.00;97763.75;5134060;27;20016;-52
2021/10/30 01:58:05;;;;;;;6.95;4.60;;;;;;;13.30;55.83;97760.97;5115779;27;20016;-53
2021/10/30 02:00:32;;;;;;;8.85;5.45;;;;;;;13.27;56.61;97751.69;5134071;27;20019;-53
2021/10/30 02:02:58;;;;;;;12.23;4.53;;;;;;;13.28;56.27;97741.94;5133679;27;20388;-53
2021/10/30 02:05:24;;;;;;;6.90;4.95;;;;;;;13.31;56.60;97746.78;5133983;27;20057;-53
2021/10/30 02:07:50;;;;;;;12.25;5.32;;;;;;;13.53;56.46;97738.94;5115403;27;20369;-53
2021/10/30 02:10:16;;;;;;;8.90;5.90;;;;;;;13.75;56.22;97726.56;5134038;27;20016;-53
2021/10/30 02:12:43;;;;;;;11.20;5.05;;;;;;;13.95;55.74;97733.94;5133787;27;20018;-53
2021/10/30 02:15:10;;;;;;;6.85;4.97;;;;;;;14.03;55.42;97731.94;5115272;27;20489;-53
2021/10/30 02:17:37;;;;;;;10.82;7.00;;;;;;;14.07;55.54;97715.34;5133819;27;20024;-53
2021/10/30 02:20:05;;;;;;;15.75;7.10;;;;;;;13.99;55.17;97718.41;5133645;27;20031;-52
2021/10/30 02:22:30;;;;;;;17.20;10.27;;;;;;;14.03;56.19;97716.88;5133522;27;20026;-52
2021/10/30 02:24:56;;;;;;;22.85;12.35;;;;;;;14.40;55.67;97718.84;5133257;27;20042;-52
2021/10/30 02:27:22;;;;;;;21.38;14.57;;;;;;;14.62;54.58;97707.47;5133571;27;20019;-52
2021/10/30 02:29:48;;;;;;;24.13;19.10;;;;;;;14.77;54.29;97705.00;5098153;27;20037;-52
2021/10/30 02:32:14;;;;;;;14.20;11.10;;;;;;;14.81;54.07;97703.44;5133451;27;20088;-53
2021/10/30 02:34:40;;;;;;;15.05;9.85;;;;;;;15.05;53.80;97687.22;5133416;27;20051;-53
2021/10/30 02:37:07;;;;;;;11.10;7.28;;;;;;;15.22;52.70;97697.66;5133224;27;20027;-52
2021/10/30 02:39:33;;;;;;;11.68;7.10;;;;;;;15.12;52.79;97691.25;5133305;27;20072;-53
2021/10/30 02:41:58;;;;;;;11.82;7.65;;;;;;;15.02;53.04;97674.53;5133264;27;20055;-53
2021/10/30 02:44:24;;;;;;;9.30;6.68;;;;;;;14.91;53.24;97663.88;5133268;27;20603;-53
2021/10/30 02:46:50;;;;;;;7.57;5.38;;;;;;;14.84;53.46;97667.78;5133105;27;20548;-53
2021/10/30 02:49:17;;;;;;;9.82;5.65;;;;;;;14.75;53.68;97670.91;5097816;27;20377;-53
2021/10/30 02:51:43;;;;;;;11.38;5.45;;;;;;;14.73;53.80;97666.94;5133039;27;20027;-53
2021/10/30 02:54:09;;;;;;;14.02;4.95;;;;;;;14.78;53.75;97649.25;5133128;27;20384;-52
2021/10/30 02:56:35;;;;;;;9.38;5.32;;;;;;;14.77;53.83;97639.75;5133018;27;20019;-53
2021/10/30 02:59:01;;;;;;;12.43;5.20;;;;;;;14.61;53.85;97634.59;5132975;27;20050;-53
2021/10/30 03:01:26;;;;;;;9.10;5.22;;;;;;;14.34;54.52;97641.47;5114567;27;20019;-52
2021/10/30 03:03:52;;;;;;;6.38;4.25;;;;;;;14.29;54.92;97636.16;5111004;28;20047;-52
2021/10/30 03:06:21;;;;;;;9.65;4.70;;;;;;;14.29;55.28;97624.81;5112459;28;20374;-53
2021/10/30 03:08:48;;;;;;;8.50;5.35;;;;;;;14.32;55.11;97629.56;5112565;28;20373;-53
2021/10/30 03:11:14;;;;;;;8.90;5.43;;;;;;;14.37;55.26;97619.06;5112280;28;20027;-52
2021/10/30 03:13:40;;;;;;;13.32;6.22;;;;;;;14.52;54.94;97621.03;5111096;28;20023;-52
2021/10/30 03:16:06;;;;;;;11.50;7.50;;;;;;;14.60;54.75;97625.09;5110884;28;20378;-52
2021/10/30 03:18:31;;;;;;;18.08;9.43;;;;;;;14.68;54.76;97616.69;5112268;28;20047;-52
2021/10/30 03:20:57;;;;;;;12.88;9.27;;;;;;;14.76;54.25;97613.56;5110991;28;20028;-53
2021/10/30 03:23:22;;;;;;;14.18;8.50;;;;;;;14.65;54.63;97617.19;5112199;28;20027;-53
2021/10/30 03:25:48;;;;;;;14.57;11.50;;;;;;;14.55;55.08;97609.97;5112184;28;20034;-53
2021/10/30 03:28:14;;;;;;;20.05;13.05;;;;;;;14.62;55.05;97613.22;5112273;28;20516;-53
2021/10/30 03:30:43;;;;;;;15.25;10.18;;;;;;;14.66;54.94;97610.88;5112113;28;20022;-52
2021/10/30 03:33:09;;;;;;;9.48;6.65;;;;;;;14.66;54.27;97608.22;5112102;28;20115;-53
2021/10/30 03:35:35;;;;;;;12.80;8.55;;;;;;;14.61;54.50;97606.34;5113497;28;20494;-53
2021/10/30 03:38:01;;;;;;;7.80;6.03;;;;;;;14.54;54.34;97601.25;5116295;28;20020;-53
2021/10/30 03:40:27;;;;;;;8.27;5.43;;;;;;;14.54;54.71;97598.59;5116131;28;20377;-52
2021/10/30 03:42:53;;;;;;;9.50;5.88;;;;;;;14.62;54.43;97600.00;5114865;28;20027;-52
2021/10/30 03:45:18;;;;;;;9.65;6.03;;;;;;;14.62;54.25;97593.94;5116184;28;20056;-52
2021/10/30 03:47:44;;;;;;;12.52;6.57;;;;;;;14.59;54.48;97582.03;5116101;28;20078;-53
2021/10/30 03:50:11;;;;;;;8.07;4.45;;;;;;;14.57;54.61;97587.56;5114775;28;20104;-52
2021/10/30 03:52:36;;;;;;;12.65;4.97;;;;;;;14.47;54.62;97579.56;5115972;28;20039;-53
2021/10/30 03:55:03;;;;;;;6.93;4.30;;;;;;;14.49;54.92;97579.31;5115939;28;20370;-53
2021/10/30 03:57:29;;;;;;;8.88;4.97;;;;;;;14.30;55.45;97563.81;5116064;28;20361;-52
2021/10/30 03:59:55;;;;;;;9.85;4.68;;;;;;;14.05;56.21;97553.09;5097556;28;20046;-53
2021/10/30 04:02:20;;;;;;;8.40;4.45;;;;;;;13.85;56.79;97551.84;5115830;28;20046;-52
2021/10/30 04:04:46;;;;;;;9.45;4.85;;;;;;;13.77;57.42;97555.72;5131693;27;20176;-53
2021/10/30 04:07:12;;;;;;;11.10;5.32;;;;;;;13.86;57.16;97548.13;5117898;27;20027;-52
2021/10/30 04:09:38;;;;;;;5.63;3.70;;;;;;;13.88;56.90;97545.25;5136222;27;20079;-52
2021/10/30 04:12:04;;;;;;;6.03;3.83;;;;;;;13.92;57.00;97541.91;5136163;27;20028;-53
2021/10/30 04:14:30;;;;;;;7.53;4.15;;;;;;;14.16;56.70;97536.28;5136085;27;20031;-53
2021/10/30 04:16:56;;;;;;;8.38;4.05;;;;;;;14.52;55.64;97545.25;5117460;27;20023;-53
2021/10/30 04:19:37;;;;;;;4.85;3.60;;;;;;;14.77;54.39;97533.31;5136035;27;20066;-53
2021/10/30 04:22:03;;;;;;;6.32;3.72;;;;;;;14.88;53.92;97526.22;5135995;27;20015;-52
2021/10/30 04:24:28;;;;;;;8.00;2.28;;;;;;;15.13;52.16;97525.53;5117527;27;20034;-52
2021/10/30 04:26:54;;;;;;;3.33;1.60;;;;;;;15.45;50.99;97524.59;5117411;27;20457;-52
2021/10/30 04:29:20;;;;;;;6.45;3.38;;;;;;;15.63;51.52;97520.66;5117357;27;20019;-53
2021/10/30 04:31:47;;;;;;;4.20;1.38;;;;;;;15.78;48.54;97504.88;5117334;27;20079;-53
2021/10/30 04:34:20;;;;;;;3.80;1.77;;;;;;;16.23;48.21;97505.94;5135873;27;20023;-52
2021/10/30 04:36:48;;;;;;;4.97;1.75;;;;;;;16.78;46.37;97506.09;5135583;27;20023;-52
2021/10/30 04:39:13;;;;;;;2.28;1.25;;;;;;;17.25;44.11;97507.56;5135945;27;20087;-53
2021/10/30 04:41:42;;;;;;;3.10;1.42;;;;;;;17.68;43.70;97496.44;5134315;27;20500;-53
2021/10/30 04:44:08;;;;;;;1.67;1.10;;;;;;;17.96;42.74;97498.38;5135491;27;20035;-52
2021/10/30 04:46:34;;;;;;;2.67;1.15;;;;;;;18.25;41.52;97494.97;5116658;27;20031;-52
2021/10/30 04:49:01;;;;;;;22.20;18.02;;;;;;;18.49;41.14;97487.03;5117191;27;20072;-53
2021/10/30 04:51:27;;;;;;;20.00;8.90;;;;;;;18.72;39.97;97474.06;5135462;27;20023;-52
2021/10/30 04:53:53;;;;;;;6.28;2.40;;;;;;;18.99;39.29;97468.16;5135269;27;20031;-50
2021/10/30 04:56:18;;;;;;;3.70;1.35;;;;;;;19.09;38.84;97456.63;5135276;27;20016;-49
2021/10/30 04:58:44;;;;;;;4.38;1.73;;;;;;;19.16;38.50;97452.53;5135337;27;20026;-50
2021/10/30 05:01:11;;;;;;;4.50;1.40;;;;;;;19.31;38.13;97469.34;5116822;27;20080;-51
2021/10/30 05:03:37;;;;;;;8.63;1.75;;;;;;;19.42;38.09;97454.84;5116487;27;20035;-50
2021/10/30 05:06:03;;;;;;;4.28;1.88;;;;;;;19.52;37.90;97460.03;5135193;27;20114;-50
2021/10/30 05:08:29;;;;;;;3.00;1.10;;;;;;;19.54;37.89;97449.88;5135278;27;20484;-51
2021/10/30 05:10:54;;;;;;;2.60;1.30;;;;;;;19.62;37.69;97448.44;5135082;27;20501;-51
2021/10/30 05:13:20;;;;;;;4.82;2.03;;;;;;;19.70;37.59;97437.13;5135054;27;20506;-51
2021/10/30 05:15:45;;;;;;;4.30;1.45;;;;;;;19.75;37.65;97436.28;5134790;27;20080;-50
2021/10/30 05:18:11;;;;;;;2.25;1.05;;;;;;;19.84;37.46;97444.38;5116459;27;20023;-50
2021/10/30 05:20:37;;;;;;;2.38;1.20;;;;;;;19.85;37.03;97441.44;5116326;27;20453;-51
2021/10/30 05:23:02;;;;;;;3.90;1.55;;;;;;;19.91;36.90;97431.50;5134807;27;20063;-51
2021/10/30 05:25:28;;;;;;;4.50;1.45;;;;;;;19.92;37.05;97425.06;5134802;27;20101;-51
2021/10/30 05:27:54;;;;;;;4.30;1.70;;;;;;;19.90;37.14;97424.59;5134723;27;20023;-51
2021/10/30 05:30:20;;;;;;;2.03;1.20;;;;;;;19.85;37.17;97417.47;5134851;27;20111;-51
2021/10/30 05:32:45;;;;;;;2.42;1.15;;;;;;;19.78;37.28;97424.25;5116394;27;20019;-51
2021/10/30 05:35:11;;;;;;;5.05;2.15;;;;;;;19.70;37.89;97423.03;5134584;27;20019;-51
2021/10/30 05:37:37;;;;;;;6.88;1.40;;;;;;;19.65;37.75;97420.44;5134458;27;20396;-51
2021/10/30 05:40:07;;;;;;;3.80;1.30;;;;;;;19.62;37.72;97423.66;5116226;27;20027;-51
2021/10/30 05:42:35;;;;;;;6.25;1.40;;;;;;;19.66;37.77;97433.47;5134679;27;20046;-51
2021/10/30 05:45:04;;;;;;;3.15;1.42;;;;;;;19.67;37.87;97440.34;5134328;27;20080;-51
2021/10/30 05:47:32;;;;;;;2.63;1.27;;;;;;;19.69;37.83;97443.53;5134352;27;20015;-51
2021/10/30 05:49:58;;;;;;;3.20;1.10;;;;;;;19.71;37.95;97454.69;5134321;27;20026;-50
2021/10/30 05:52:24;;;;;;;4.85;1.70;;;;;;;19.71;38.41;97441.38;5115789;27;20392;-51
2021/10/30 05:54:50;;;;;;;4.53;1.10;;;;;;;19.72;37.71;97437.66;5134213;27;20062;-50
2021/10/30 05:57:15;;;;;;;6.95;2.92;;;;;;;19.72;37.87;97442.19;5115469;27;20020;-50
2021/10/30 05:59:41;;;;;;;6.65;3.80;;;;;;;19.75;37.82;97430.94;5133225;27;20388;-50
2021/10/30 06:02:11;;;;;;;9.40;2.45;;;;;;;19.84;37.98;97421.22;5134023;27;20114;-51
2021/10/30 06:04:38;;;;;;;9.60;1.42;;;;;;;19.88;37.77;97424.91;5112042;28;20047;-50
2021/10/30 06:07:04;;;;;;;3.20;1.30;;;;;;;19.88;37.77;97430.22;5113443;28;20493;-51
2021/10/30 06:09:29;;;;;;;5.07;1.80;;;;;;;19.81;37.97;97429.00;5113317;28;20035;-50
2021/10/30 06:11:55;;;;;;;1.95;1.17;;;;;;;19.81;38.10;97423.69;5112040;28;20114;-51
2021/10/30 06:14:21;;;;;;;2.28;1.10;;;;;;;20.04;38.01;97438.75;5111982;28;20397;-51
2021/10/30 06:16:47;;;;;;;3.28;1.33;;;;;;;20.11;37.74;97414.38;5113099;28;20024;-51
2021/10/30 06:19:12;;;;;;;4.38;1.58;;;;;;;20.01;37.85;97401.25;5113494;28;20036;-51
2021/10/30 06:21:38;;;;;;;3.20;1.02;;;;;;;19.91;37.98;97410.19;5111797;28;20115;-50
2021/10/30 06:24:04;;;;;;;4.28;1.17;;;;;;;19.88;38.06;97402.78;5113095;28;20020;-51
2021/10/30 06:26:30;;;;;;;4.75;1.15;;;;;;;19.88;37.93;97390.28;5113048;28;20038;-51
2021/10/30 06:28:56;;;;;;;7.57;1.83;;;;;;;19.89;37.92;97388.41;5112985;28;20016;-51
2021/10/30 06:31:22;;;;;;;1.92;1.20;;;;;;;19.84;38.32;97375.16;5112966;28;20051;-51
2021/10/30 06:33:49;;;;;;;3.75;1.70;;;;;;;19.81;38.33;97402.38;5112862;28;20023;-51
2021/10/30 06:36:15;;;;;;;2.33;1.20;;;;;;;19.73;38.56;97403.84;5111530;28;20476;-51
2021/10/30 06:38:40;;;;;;;2.78;1.17;;;;;;;19.67;38.40;97391.66;5112869;28;20103;-51
2021/10/30 06:41:08;;;;;;;4.25;1.60;;;;;;;19.56;38.82;97405.13;5112845;28;20055;-51
2021/10/30 06:43:34;;;;;;;3.85;1.40;;;;;;;19.53;39.10;97412.91;5111485;28;20011;-51
2021/10/30 06:46:00;;;;;;;2.22;1.38;;;;;;;19.56;39.11;97423.75;5112738;28;20026;-51
2021/10/30 06:48:26;;;;;;;1.63;1.02;;;;;;;19.61;38.97;97419.44;5112514;28;20046;-51
2021/10/30 06:50:54;;;;;;;3.30;1.00;;;;;;;19.70;38.50;97423.03;5112659;28;20477;-50
2021/10/30 06:53:21;;;;;;;7.05;2.25;;;;;;;19.83;39.44;97410.88;5111299;28;20051;-50
2021/10/30 06:55:48;;;;;;;3.90;1.00;;;;;;;19.98;38.37;97420.47;5112443;28;20062;-50
2021/10/30 06:58:16;;;;;;;3.70;1.05;;;;;;;19.95;38.17;97419.97;5112496;28;20022;-50
2021/10/30 07:00:43;;;;;;;3.13;1.08;;;;;;;19.92;38.22;97427.75;5112429;28;20073;-51
2021/10/30 07:03:09;;;;;;;2.53;1.30;;;;;;;19.93;38.17;97421.34;5112157;28;20061;-49
2021/10/30 07:05:35;;;;;;;6.50;2.83;;;;;;;19.92;38.37;97430.41;5094155;28;20032;-50
2021/10/30 07:08:01;;;;;;;6.80;1.75;;;;;;;19.97;38.26;97418.91;5077284;28;20084;-50
2021/10/30 07:10:27;;;;;;;4.22;1.40;;;;;;;19.98;37.73;97426.59;5111933;28;20501;-50
2021/10/30 07:12:52;;;;;;;2.30;1.23;;;;;;;19.97;37.72;97427.66;5094115;28;20023;-50
2021/10/30 07:15:18;;;;;;;8.73;2.42;;;;;;;19.94;37.79;97431.72;5093964;28;20011;-51
2021/10/30 07:17:44;;;;;;;2.70;1.25;;;;;;;19.93;38.01;97427.47;5112001;28;20366;-50
2021/10/30 07:20:10;;;;;;;3.40;1.30;;;;;;;19.96;37.70;97418.13;5112226;28;20106;-50
2021/10/30 07:22:44;;;;;;;2.80;1.08;;;;;;;19.93;37.81;97437.31;5094112;28;20111;-50
2021/10/30 07:25:11;;;;;;;2.55;0.80;;;;;;;19.97;37.22;97429.53;5112461;28;20032;-50
2021/10/30 07:27:38;;;;;;;4.72;0.98;;;;;;;19.97;37.71;97429.53;5112128;28;20032;-50
2021/10/30 07:30:07;;;;;;;6.50;1.50;;;;;;;20.11;37.52;97433.03;5111158;28;20019;-49
2021/10/30 07:32:33;;;;;;;4.13;0.98;;;;;;;20.26;36.59;97431.97;5112057;28;20028;-51
2021/10/30 07:34:59;;;;;;;8.40;1.25;;;;;;;20.31;36.51;97429.22;5112096;28;20022;-51
2021/10/30 07:37:25;;;;;;;3.05;1.00;;;;;;;20.44;36.28;97431.06;5112045;28;20020;-51
2021/10/30 07:39:51;;;;;;;4.55;1.73;;;;;;;20.52;36.03;97432.28;5112073;28;20043;-51
2021/10/30 07:42:18;;;;;;;4.20;1.05;;;;;;;20.58;35.98;97415.09;5110600;28;20027;-51
2021/10/30 07:44:44;;;;;;;3.53;0.95;;;;;;;20.57;35.76;97440.19;5110629;28;20096;-51
2021/10/30 07:47:11;;;;;;;3.72;0.93;;;;;;;20.60;35.99;97444.16;5111997;28;20083;-51
2021/10/30 07:49:36;;;;;;;5.10;0.80;;;;;;;20.64;35.66;97435.25;5110658;28;20051;-51
2021/10/30 07:52:04;;;;;;;2.80;0.80;;;;;;;20.66;35.81;97429.66;5110693;28;20503;-51
2021/10/30 07:54:30;;;;;;;3.30;1.63;;;;;;;20.73;35.87;97430.03;5110531;28;20019;-50
2021/10/30 07:56:55;;;;;;;2.90;0.80;;;;;;;20.84;35.87;97439.41;5093582;28;20450;-51
2021/10/30 07:59:21;;;;;;;2.30;0.80;;;;;;;20.87;35.36;97452.16;5110779;28;20030;-50
2021/10/30 08:01:50;;;;;;;3.75;0.90;;;;;;;20.84;35.42;97451.97;5111790;28;20124;-50
2021/10/30 08:04:17;;;;;;;4.53;1.70;;;;;;;20.94;36.09;97455.19;5123331;28;20516;-50
2021/10/30 08:06:44;;;;;;;4.85;1.00;;;;;;;21.10;35.19;97438.88;5113926;28;20067;-51
2021/10/30 08:09:09;;;;;;;3.47;1.13;;;;;;;21.04;35.13;97470.22;5113879;28;20038;-50
2021/10/30 08:11:35;;;;;;;1.42;0.80;;;;;;;21.00;35.44;97471.09;5132286;28;20016;-51
2021/10/30 08:14:01;;;;;;;3.80;1.35;;;;;;;20.93;35.83;97464.31;5132275;28;20035;-50
2021/10/30 08:16:27;;;;;;;5.15;1.70;;;;;;;20.73;37.04;97486.81;5113842;28;20019;-50
2021/10/30 08:18:53;;;;;;;5.88;1.02;;;;;;;20.62;36.43;97497.97;5113832;28;20033;-51
2021/10/30 08:21:19;;;;;;;5.97;0.70;;;;;;;20.59;36.52;97499.34;5132715;27;20015;-50
2021/10/30 08:23:45;;;;;;;3.70;0.95;;;;;;;20.59;36.70;97507.34;5136244;27;20453;-50
2021/10/30 08:26:11;;;;;;;4.10;0.80;;;;;;;20.72;36.49;97505.78;5117447;27;20035;-50
2021/10/30 08:28:36;;;;;;;2.40;0.80;;;;;;;20.77;36.20;97513.69;5135917;27;20023;-50
2021/10/30 08:31:02;;;;;;;47.15;34.60;;;;;;;20.79;36.83;97519.53;5100564;27;20111;-51
2021/10/30 08:33:28;;;;;;;3.40;2.17;;;;;;;20.93;36.14;97517.66;5117336;27;20129;-50
2021/10/30 08:35:54;;;;;;;10.30;6.20;;;;;;;20.91;36.26;97513.69;5135670;27;20098;-50
2021/10/30 08:38:19;;;;;;;5.88;2.13;;;;;;;20.90;36.30;97522.78;5135810;27;20023;-50
2021/10/30 08:40:45;;;;;;;3.47;1.50;;;;;;;20.89;36.42;97522.00;5117222;27;20027;-51
2021/10/30 08:43:22;;;;;;;21.77;4.93;;;;;;;20.92;37.32;97525.94;5135559;27;20484;-50
2021/10/30 08:45:50;;;;;;;6.30;1.40;;;;;;;21.04;36.74;97517.44;5117145;27;20023;-50
2021/10/30 08:48:19;;;;;;;13.32;4.22;;;;;;;20.99;37.62;97509.53;5100379;27;20051;-51
2021/10/30 08:50:46;;;;;;;4.32;1.00;;;;;;;20.95;37.38;97518.13;5135387;27;20023;-51
2021/10/30 08:53:12;;;;;;;7.35;1.58;;;;;;;20.83;37.57;97517.84;5135712;27;20027;-50
2021/10/30 08:55:38;;;;;;;6.25;1.70;;;;;;;20.85;37.79;97513.00;5135529;27;20468;-51
2021/10/30 08:58:13;;;;;;;3.97;1.42;;;;;;;20.96;37.83;97529.59;5135323;27;20092;-50
2021/10/30 09:00:46;;;;;;;6.00;1.02;;;;;;;20.97;37.68;97523.19;5135492;27;20027;-50
2021/10/30 09:03:14;;;;;;;2.55;1.15;;;;;;;21.05;37.97;97525.16;5135005;27;20145;-52
2021/10/30 09:05:42;;;;;;;3.50;1.60;;;;;;;21.30;37.82;97547.84;5135158;27;20023;-50
2021/10/30 09:08:09;;;;;;;4.35;0.90;;;;;;;21.53;37.21;97554.09;5135322;27;20160;-50
2021/10/30 09:10:50;;;;;;;3.83;0.95;;;;;;;21.51;37.50;97555.47;5116570;27;20026;-50
2021/10/30 09:13:19;;;;;;;2.75;1.05;;;;;;;21.47;37.73;97581.16;5116630;27;20500;-50
2021/10/30 09:15:48;;;;;;;2.80;1.08;;;;;;;21.45;37.79;97586.03;5135124;27;20400;-50
2021/10/30 09:18:46;;;;;;;4.78;0.85;;;;;;;21.45;37.72;97597.50;5135181;27;20054;-51
2021/10/30 09:21:17;;;;;;;2.50;1.08;;;;;;;21.43;38.37;97602.34;5089418;27;20081;-51
2021/10/30 09:23:52;;;;;;;5.63;1.42;;;;;;;21.59;38.51;97600.16;5134760;27;20067;-50
2021/10/30 09:26:22;;;;;;;2.53;1.05;;;;;;;21.38;39.06;97601.63;5134818;27;20024;-50
2021/10/30 09:28:55;;;;;;;3.42;0.73;;;;;;;21.17;39.60;97595.88;5134601;27;20023;-50
2021/10/30 09:31:25;;;;;;;4.70;1.20;;;;;;;20.95;40.21;97597.38;5134711;27;20058;-50
2021/10/30 09:33:54;;;;;;;5.22;2.03;;;;;;;20.85;40.98;97587.66;5134479;27;20031;-50
2021/10/30 09:36:43;;;;;;;8.90;1.80;;;;;;;20.87;41.08;97593.50;5134533;27;20019;-50
2021/10/30 09:39:11;;;;;;;3.38;1.38;;;;;;;20.90;40.88;97598.22;5134479;27;20035;-50
2021/10/30 09:41:39;;;;;;;3.50;1.00;;;;;;;20.88;41.28;97605.75;5099348;27;20019;-51
2021/10/30 09:44:25;;;;;;;3.22;1.45;;;;;;;20.81;41.53;97617.91;5134418;27;20023;-50
2021/10/30 09:46:59;;;;;;;2.25;1.00;;;;;;;20.79;41.60;97591.50;5099089;27;20039;-50
2021/10/30 09:49:30;;;;;;;4.13;0.80;;;;;;;20.66;41.74;97619.72;5134446;27;20038;-51
2021/10/30 09:52:11;;;;;;;2.15;0.85;;;;;;;20.48;42.53;97628.50;5134209;27;20028;-50
2021/10/30 09:54:45;;;;;;;2.78;1.00;;;;;;;20.29;42.73;97626.66;5134288;27;20058;-51
2021/10/30 09:57:31;;;;;;;4.88;1.95;;;;;;;20.34;43.49;97626.59;5134001;27;20026;-51
2021/10/30 09:59:59;;;;;;;5.68;1.10;;;;;;;20.69;43.06;97623.69;5134136;27;20019;-50
2021/10/30 10:02:26;;;;;;;2.03;1.00;;;;;;;20.82;42.70;97620.25;5134293;27;20015;-49
2021/10/30 10:04:53;;;;;;;3.40;0.90;;;;;;;21.00;42.67;97618.59;5112152;28;20501;-50
2021/10/30 10:07:25;;;;;;;2.80;1.15;;;;;;;21.03;42.62;97626.03;5095096;28;20040;-51
2021/10/30 10:09:52;;;;;;;6.50;1.30;;;;;;;20.86;42.99;97623.91;5113324;28;20388;-50
2021/10/30 10:12:19;;;;;;;3.83;0.93;;;;;;;20.69;43.69;97629.81;5113601;28;20462;-50
2021/10/30 10:14:48;;;;;;;3.22;1.15;;;;;;;20.55;44.21;97639.59;5113267;28;20023;-49
2021/10/30 10:17:15;;;;;;;2.75;1.02;;;;;;;20.73;43.79;97624.69;5112977;28;20027;-49
2021/10/30 10:19:42;;;;;;;1.65;1.05;;;;;;;20.88;43.70;97658.28;5113092;28;20452;-50
2021/10/30 10:22:08;;;;;;;2.90;0.82;;;;;;;21.03;43.68;97647.38;5111784;28;20035;-50
2021/10/30 10:24:36;;;;;;;5.15;1.63;;;;;;;21.15;43.55;97639.69;5113168;28;20028;-50
2021/10/30 10:27:05;;;;;;;3.17;1.02;;;;;;;21.00;43.76;97647.16;5113092;28;20433;-50
2021/10/30 10:29:54;;;;;;;2.33;1.10;;;;;;;20.95;44.26;97659.50;5113233;28;20019;-50
2021/10/30 10:32:22;;;;;;;5.95;1.50;;;;;;;21.32;43.72;97659.66;5094807;28;20031;-50
2021/10/30 10:34:49;;;;;;;1.33;0.80;;;;;;;22.03;42.17;97670.00;5111392;28;20020;-51
2021/10/30 10:37:17;;;;;;;1.58;0.80;;;;;;;22.83;40.86;97691.75;5112776;28;20555;-51
2021/10/30 10:39:49;;;;;;;4.20;1.00;;;;;;;23.39;39.25;97660.13;5112845;28;20020;-51
2021/10/30 10:42:37;;;;;;;2.92;1.02;;;;;;;23.12;39.87;97672.63;5112744;28;20554;-50
2021/10/30 10:45:15;;;;;;;2.58;1.17;;;;;;;22.97;39.73;97662.25;5111994;28;20100;-51
2021/10/30 10:47:41;;;;;;;2.35;1.13;;;;;;;23.11;40.24;97671.81;5094490;28;20035;-50
2021/10/30 10:50:29;;;;;;;5.07;1.60;;;;;;;23.18;40.01;97666.03;5112603;28;20038;-50
2021/10/30 10:53:01;;;;;;;1.60;0.90;;;;;;;22.89;40.05;97640.50;5111475;28;20392;-50
2021/10/30 10:55:28;;;;;;;6.57;1.70;;;;;;;22.39;41.18;97656.69;5112508;28;20509;-50
2021/10/30 10:58:03;;;;;;;4.90;0.85;;;;;;;21.88;42.09;97645.22;5112379;28;20027;-50
2021/10/30 11:00:31;;;;;;;1.70;0.75;;;;;;;21.47;42.89;97656.72;5094177;28;20070;-51
2021/10/30 11:02:59;;;;;;;4.60;1.75;;;;;;;21.46;43.62;97660.47;5111999;28;20027;-50
2021/10/30 11:05:32;;;;;;;3.33;1.58;;;;;;;21.55;43.68;97665.94;5112266;28;20072;-50
2021/10/30 11:07:57;;;;;;;4.35;0.88;;;;;;;21.62;43.19;97652.97;5112344;28;20032;-50
2021/10/30 11:10:35;;;;;;;4.40;1.73;;;;;;;21.38;43.93;97637.13;5112311;28;20035;-50
2021/10/30 11:13:08;;;;;;;5.90;1.23;;;;;;;21.36;44.01;97649.97;5112422;28;20027;-49
2021/10/30 11:15:52;;;;;;;6.00;0.77;;;;;;;21.53;43.80;97647.53;5112146;28;20020;-50
2021/10/30 11:18:29;;;;;;;1.40;0.88;;;;;;;21.72;43.38;97670.66;5077269;28;20020;-50
2021/10/30 11:21:29;;;;;;;4.68;1.40;;;;;;;21.80;43.16;97671.84;5093999;28;20046;-50
2021/10/30 11:23:57;;;;;;;2.10;0.98;;;;;;;22.21;42.41;97660.28;5093986;28;20382;-50
2021/10/30 11:26:28;;;;;;;4.88;0.75;;;;;;;23.59;39.84;97646.16;5112094;28;20039;-49
2021/10/30 11:29:03;;;;;;;2.10;0.80;;;;;;;24.91;37.05;97658.53;5094202;28;20031;-51
2021/10/30 11:31:30;;;;;;;0.55;0.45;;;;;;;25.37;35.87;97651.63;5112115;28;20095;-51
2021/10/30 11:34:05;;;;;;;2.67;1.00;;;;;;;25.26;36.46;97653.13;5112060;28;20539;-51